Time;durP1;ratioP1;P1;durP2;ratioP2;P2;SDS_P1;SDS_P2;PMS_P1;PMS_P2;Temp;Humidity;BMP_temperature;BMP_pressure;BME280_temperature;BME280_humidity;BME280_pressure;Samples;Min_cycle;Max_cycle;Signal;HPM_P1;HPM_P2
2024/04/06 00:01:14;;;;;;;2.70;1.10;;;15.50;99.90;;;;;;4993488;28;20034;-48
2024/04/06 00:03:40;;;;;;;4.38;1.10;;;15.50;99.90;;;;;;4993744;28;20042;-47
2024/04/06 00:06:07;;;;;;;2.78;0.70;;;15.50;99.90;;;;;;4993189;28;20468;-50
2024/04/06 00:08:32;;;;;;;2.25;1.10;;;15.40;99.90;;;;;;4993483;28;20038;-50
2024/04/06 00:10:58;;;;;;;1.67;0.90;;;15.40;99.90;;;;;;4993334;28;20116;-48
2024/04/06 00:13:25;;;;;;;1.50;0.80;;;15.40;99.90;;;;;;4993595;28;20113;-50
2024/04/06 00:15:50;;;;;;;3.22;1.20;;;15.50;99.90;;;;;;4992953;28;20114;-46
2024/04/06 00:18:16;;;;;;;3.38;1.15;;;15.50;99.90;;;;;;4993175;28;20096;-48
2024/04/06 00:20:42;;;;;;;2.42;0.93;;;15.40;99.90;;;;;;4991687;28;20112;-51
2024/04/06 00:23:07;;;;;;;4.20;1.00;;;15.40;99.90;;;;;;4993218;28;20432;-46
2024/04/06 00:25:33;;;;;;;5.65;1.55;;;15.30;99.90;;;;;;4992893;28;20054;-50
2024/04/06 00:27:58;;;;;;;2.08;0.90;;;15.30;99.90;;;;;;4993137;28;20015;-48
2024/04/06 00:30:24;;;;;;;1.90;1.10;;;15.30;99.90;;;;;;4992802;28;20092;-48
2024/04/06 00:32:50;;;;;;;3.58;1.35;;;15.30;99.90;;;;;;4993125;28;20030;-50
2024/04/06 00:35:16;;;;;;;2.88;1.20;;;15.30;99.90;;;;;;4992915;28;20530;-50
2024/04/06 00:37:42;;;;;;;3.50;1.25;;;15.30;99.90;;;;;;4991378;28;20076;-49
2024/04/06 00:40:08;;;;;;;3.88;1.33;;;15.30;99.90;;;;;;4992568;28;20034;-51
2024/04/06 00:42:34;;;;;;;2.83;1.20;;;15.40;99.90;;;;;;4992850;28;20396;-50
2024/04/06 00:45:00;;;;;;;3.25;1.15;;;15.30;99.90;;;;;;4992502;28;20030;-48
2024/04/06 00:47:25;;;;;;;3.72;1.13;;;15.20;99.90;;;;;;4992443;28;20030;-48
2024/04/06 00:49:51;;;;;;;3.80;1.05;;;15.20;99.90;;;;;;4992477;28;20539;-46
2024/04/06 00:52:17;;;;;;;2.30;1.38;;;15.20;99.90;;;;;;4992768;28;20030;-51
2024/04/06 00:54:42;;;;;;;2.97;1.20;;;15.20;99.90;;;;;;4992432;28;20062;-47
2024/04/06 00:57:08;;;;;;;3.45;1.08;;;15.20;99.90;;;;;;4992458;28;20463;-48
2024/04/06 00:59:35;;;;;;;4.35;1.10;;;15.30;99.90;;;;;;4992213;28;20379;-50
2024/04/06 01:02:02;;;;;;;4.15;1.40;;;15.20;99.90;;;;;;4992517;28;20388;-46
2024/04/06 01:04:29;;;;;;;2.45;1.10;;;15.30;99.90;;;;;;4992194;28;20230;-48
2024/04/06 01:06:55;;;;;;;3.78;1.10;;;15.30;99.90;;;;;;4992311;28;20030;-48
2024/04/06 01:09:22;;;;;;;4.40;1.20;;;15.30;99.90;;;;;;4992227;28;20448;-50
2024/04/06 01:11:47;;;;;;;4.45;1.35;;;15.30;99.90;;;;;;4991986;28;20042;-48
2024/04/06 01:14:13;;;;;;;4.65;1.00;;;15.20;99.90;;;;;;4992077;28;20034;-51
2024/04/06 01:16:39;;;;;;;3.33;1.10;;;15.20;99.90;;;;;;4991815;28;20129;-48
2024/04/06 01:19:05;;;;;;;4.30;1.27;;;15.20;99.90;;;;;;4991846;28;20454;-49
2024/04/06 01:21:30;;;;;;;3.85;1.20;;;15.20;99.90;;;;;;4991821;28;20072;-50
2024/04/06 01:23:56;;;;;;;3.70;1.10;;;15.30;99.90;;;;;;4992143;28;20075;-47
2024/04/06 01:26:22;;;;;;;3.28;1.15;;;15.30;99.90;;;;;;4991628;28;20153;-47
2024/04/06 01:28:48;;;;;;;2.05;1.10;;;15.40;99.90;;;;;;4992219;28;20543;-48
2024/04/06 01:31:13;;;;;;;4.60;1.20;;;15.30;99.90;;;;;;4992019;28;20421;-47
2024/04/06 01:33:40;;;;;;;3.85;1.27;;;15.30;99.90;;;;;;4992124;28;20037;-50
2024/04/06 01:36:06;;;;;;;3.58;1.42;;;15.20;99.90;;;;;;4991681;28;20387;-49
2024/04/06 01:38:32;;;;;;;2.63;1.40;;;15.20;99.90;;;;;;4991762;28;20042;-48
2024/04/06 01:40:59;;;;;;;4.22;1.30;;;15.20;99.90;;;;;;4991449;28;20061;-46
2024/04/06 01:43:25;;;;;;;3.55;1.20;;;15.20;99.90;;;;;;4991692;28;20034;-49
2024/04/06 01:45:51;;;;;;;3.30;1.27;;;15.20;99.90;;;;;;4990179;28;20033;-48
2024/04/06 01:48:16;;;;;;;3.92;1.30;;;15.20;99.90;;;;;;4991356;28;20035;-49
2024/04/06 01:50:42;;;;;;;3.85;1.25;;;15.20;99.90;;;;;;4991360;28;20077;-48
2024/04/06 01:53:08;;;;;;;5.50;1.52;;;15.20;99.90;;;;;;4991851;28;20026;-48
2024/04/06 01:55:33;;;;;;;3.28;1.35;;;15.20;99.90;;;;;;4990959;28;20488;-49
2024/04/06 01:57:59;;;;;;;3.92;1.40;;;15.20;99.90;;;;;;4991378;28;20042;-46
2024/04/06 02:00:25;;;;;;;3.33;1.23;;;15.20;99.90;;;;;;4991184;28;20026;-46
2024/04/06 02:02:50;;;;;;;4.43;1.50;;;15.10;99.90;;;;;;4990248;28;20031;-46
2024/04/06 02:05:16;;;;;;;4.97;1.10;;;15.10;99.90;;;;;;4991134;28;20027;-46
2024/04/06 02:07:41;;;;;;;4.72;1.17;;;15.10;99.90;;;;;;4991228;28;20022;-47
2024/04/06 02:10:07;;;;;;;2.88;1.42;;;15.10;99.90;;;;;;4991230;28;20391;-47
2024/04/06 02:12:33;;;;;;;4.57;1.38;;;15.10;99.90;;;;;;4991509;28;20105;-48
2024/04/06 02:14:58;;;;;;;5.45;1.52;;;15.20;99.90;;;;;;4991396;28;20501;-46
2024/04/06 02:17:24;;;;;;;5.60;1.50;;;15.30;99.90;;;;;;4991144;28;20093;-49
2024/04/06 02:19:50;;;;;;;3.70;1.40;;;15.20;99.90;;;;;;4991155;28;20050;-48
2024/04/06 02:22:16;;;;;;;2.75;1.20;;;15.20;99.90;;;;;;4991413;28;20031;-46
2024/04/06 02:24:41;;;;;;;5.07;1.55;;;15.10;99.90;;;;;;4991252;28;20121;-47
2024/04/06 02:27:07;;;;;;;3.65;1.35;;;15.00;99.90;;;;;;4991288;28;20029;-47
2024/04/06 02:29:33;;;;;;;2.92;1.33;;;14.80;99.90;;;;;;4991126;28;20034;-46
2024/04/06 02:31:59;;;;;;;3.20;1.20;;;14.80;99.90;;;;;;4991164;28;20133;-49
2024/04/06 02:34:24;;;;;;;3.50;1.13;;;14.90;99.90;;;;;;4991236;28;20034;-46
2024/04/06 02:36:50;;;;;;;4.72;1.50;;;14.80;99.90;;;;;;4991357;28;20054;-51
2024/04/06 02:39:15;;;;;;;2.58;1.23;;;14.90;99.90;;;;;;4991193;28;20048;-47
2024/04/06 02:41:41;;;;;;;3.00;1.15;;;14.80;99.90;;;;;;4991016;28;20113;-46
2024/04/06 02:44:07;;;;;;;4.18;1.50;;;14.70;99.90;;;;;;4991277;28;20137;-46
2024/04/06 02:46:33;;;;;;;4.35;1.60;;;14.70;99.90;;;;;;4990862;28;20042;-47
2024/04/06 02:48:59;;;;;;;2.47;1.10;;;14.60;99.90;;;;;;4991136;28;20165;-47
2024/04/06 02:51:25;;;;;;;3.38;1.30;;;14.60;99.90;;;;;;4991000;28;20124;-47
2024/04/06 02:53:50;;;;;;;4.53;1.88;;;14.50;99.90;;;;;;4991061;28;20042;-47
2024/04/06 02:56:16;;;;;;;4.30;1.60;;;14.60;99.90;;;;;;4990808;28;20031;-49
2024/04/06 02:58:42;;;;;;;5.60;2.35;;;14.50;99.90;;;;;;4990977;28;20026;-48
2024/04/06 03:01:08;;;;;;;8.15;4.13;;;14.40;99.90;;;;;;4990738;28;20030;-47
2024/04/06 03:03:34;;;;;;;6.43;3.35;;;14.30;99.90;;;;;;4991196;28;20057;-46
2024/04/06 03:06:00;;;;;;;6.10;2.92;;;14.40;99.90;;;;;;4990829;28;20057;-46
2024/04/06 03:08:26;;;;;;;4.70;2.05;;;14.40;99.90;;;;;;4992413;28;20034;-47
2024/04/06 03:10:51;;;;;;;5.10;1.95;;;14.40;99.90;;;;;;4994421;28;20515;-48
2024/04/06 03:13:19;;;;;;;4.78;1.70;;;14.30;99.90;;;;;;4994431;28;20037;-47
2024/04/06 03:15:44;;;;;;;4.38;1.90;;;14.30;99.90;;;;;;4993955;28;20033;-46
2024/04/06 03:18:12;;;;;;;4.50;2.17;;;14.30;99.90;;;;;;4994369;28;20109;-49
2024/04/06 03:20:38;;;;;;;3.95;1.77;;;14.30;99.90;;;;;;4993933;28;20496;-46
2024/04/06 03:23:05;;;;;;;4.28;2.10;;;14.30;99.90;;;;;;4994420;28;20191;-46
2024/04/06 03:25:32;;;;;;;3.53;1.98;;;14.30;99.90;;;;;;4994300;28;20034;-46
2024/04/06 03:27:58;;;;;;;4.68;1.55;;;14.20;99.90;;;;;;4993975;28;20066;-49
2024/04/06 03:30:25;;;;;;;3.55;1.95;;;14.10;99.90;;;;;;4995842;28;20034;-46
2024/04/06 03:32:51;;;;;;;4.78;1.70;;;14.10;99.90;;;;;;5013717;28;20041;-47
2024/04/06 03:35:20;;;;;;;3.92;1.90;;;14.10;99.90;;;;;;5013443;28;20117;-46
2024/04/06 03:37:50;;;;;;;3.92;1.50;;;14.10;99.90;;;;;;5012050;28;20128;-46
2024/04/06 03:40:16;;;;;;;3.92;1.65;;;14.10;99.90;;;;;;5013194;28;20087;-46
2024/04/06 03:42:55;;;;;;;4.88;1.58;;;14.00;99.90;;;;;;5013431;28;20046;-46
2024/04/06 03:45:21;;;;;;;2.95;1.30;;;14.00;99.90;;;;;;5013443;28;20060;-46
2024/04/06 03:47:47;;;;;;;4.72;1.35;;;14.00;99.90;;;;;;5013087;28;20095;-46
2024/04/06 03:50:14;;;;;;;5.05;1.50;;;13.90;99.90;;;;;;5013016;28;20060;-46
2024/04/06 03:52:40;;;;;;;2.85;1.50;;;13.90;99.90;;;;;;5013409;28;20029;-46
2024/04/06 03:55:06;;;;;;;4.68;1.73;;;13.90;99.90;;;;;;5012981;28;20423;-47
2024/04/06 03:57:31;;;;;;;4.38;1.50;;;13.90;99.90;;;;;;5013156;28;20033;-47
2024/04/06 03:59:57;;;;;;;4.30;1.40;;;13.90;99.90;;;;;;5012907;28;20037;-46
2024/04/06 04:02:22;;;;;;;3.50;1.50;;;13.90;99.90;;;;;;5013232;28;20467;-49
2024/04/06 04:04:48;;;;;;;3.35;1.80;;;13.90;99.90;;;;;;5012900;28;20058;-50
2024/04/06 04:07:14;;;;;;;3.15;1.50;;;14.00;99.90;;;;;;5012549;28;20041;-46
2024/04/06 04:09:39;;;;;;;4.45;1.80;;;13.90;99.90;;;;;;5012619;28;20069;-46
2024/04/06 04:12:05;;;;;;;3.70;1.60;;;13.90;99.90;;;;;;5012866;28;20026;-50
2024/04/06 04:14:31;;;;;;;8.27;1.83;;;13.80;99.90;;;;;;5012779;28;20073;-48
2024/04/06 04:16:56;;;;;;;2.08;1.50;;;13.80;99.90;;;;;;5012675;28;20036;-48
2024/04/06 04:19:22;;;;;;;3.38;1.55;;;13.80;99.90;;;;;;5012454;28;20026;-47
2024/04/06 04:21:47;;;;;;;3.38;1.35;;;13.80;99.90;;;;;;5012748;28;20436;-51
2024/04/06 04:24:13;;;;;;;4.65;1.48;;;13.90;99.90;;;;;;5012717;28;20076;-50
2024/04/06 04:26:38;;;;;;;2.38;1.40;;;13.90;99.90;;;;;;5012578;28;20040;-49
2024/04/06 04:29:04;;;;;;;4.03;1.60;;;13.90;99.90;;;;;;5012728;28;20033;-49
2024/04/06 04:31:30;;;;;;;5.80;1.90;;;13.90;99.90;;;;;;5012369;28;20446;-50
2024/04/06 04:33:56;;;;;;;3.30;1.40;;;13.80;99.90;;;;;;5012796;28;20053;-52
2024/04/06 04:36:22;;;;;;;4.10;1.60;;;13.70;99.90;;;;;;5012334;28;20053;-51
2024/04/06 04:38:47;;;;;;;4.85;1.70;;;13.80;99.90;;;;;;5012439;28;20418;-52
2024/04/06 04:41:13;;;;;;;3.88;1.80;;;13.90;99.90;;;;;;5012490;28;20124;-47
2024/04/06 04:43:38;;;;;;;2.35;1.48;;;13.90;99.90;;;;;;5012642;28;20034;-47
2024/04/06 04:46:04;;;;;;;4.90;1.33;;;14.00;99.90;;;;;;5012063;28;20041;-50
2024/04/06 04:48:50;;;;;;;4.55;1.40;;;14.00;99.90;;;;;;5012410;28;20034;-49
2024/04/06 04:51:16;;;;;;;3.60;1.15;;;14.00;99.90;;;;;;5012255;28;20523;-49
2024/04/06 04:53:41;;;;;;;3.88;1.73;;;13.90;99.90;;;;;;5012163;28;20160;-51
2024/04/06 04:56:07;;;;;;;7.03;2.30;;;13.90;99.90;;;;;;5011782;28;20043;-52
2024/04/06 04:58:32;;;;;;;3.45;1.40;;;13.80;99.90;;;;;;5012184;28;20080;-50
2024/04/06 05:00:58;;;;;;;5.28;1.67;;;13.80;99.90;;;;;;5011778;28;20120;-51
2024/04/06 05:03:23;;;;;;;3.22;1.88;;;13.90;99.90;;;;;;5011963;28;20025;-48
2024/04/06 05:05:49;;;;;;;4.63;2.10;;;13.90;99.90;;;;;;5010282;28;20463;-50
2024/04/06 05:08:15;;;;;;;6.25;2.33;;;13.90;99.90;;;;;;5011872;28;20112;-52
2024/04/06 05:10:42;;;;;;;6.72;2.80;;;14.00;99.90;;;;;;5011666;28;20115;-50
2024/04/06 05:13:08;;;;;;;3.63;2.00;;;13.90;99.90;;;;;;5012028;28;20058;-50
2024/04/06 05:15:34;;;;;;;9.00;4.95;;;13.90;99.90;;;;;;5011697;28;20048;-50
2024/04/06 05:17:59;;;;;;;6.28;3.50;;;13.90;99.90;;;;;;5006694;28;20035;-47
2024/04/06 05:20:25;;;;;;;6.57;3.38;;;14.00;99.90;;;;;;5001143;28;20081;-49
2024/04/06 05:22:51;;;;;;;4.82;2.10;;;14.10;99.90;;;;;;5009002;28;20041;-49
2024/04/06 05:25:16;;;;;;;4.90;2.53;;;14.10;99.90;;;;;;5011502;28;20042;-47
2024/04/06 05:27:42;;;;;;;5.15;2.33;;;14.10;99.90;;;;;;5011497;28;20069;-48
2024/04/06 05:30:08;;;;;;;3.42;1.63;;;14.10;99.90;;;;;;5011037;28;20370;-51
2024/04/06 05:32:34;;;;;;;3.05;1.30;;;14.20;99.90;;;;;;5011305;28;20628;-48
2024/04/06 05:34:59;;;;;;;4.60;1.58;;;14.20;99.90;;;;;;5011371;28;20141;-50
2024/04/06 05:37:25;;;;;;;4.82;1.63;;;14.20;99.90;;;;;;5011308;28;20033;-48
2024/04/06 05:39:50;;;;;;;2.97;1.58;;;14.30;99.90;;;;;;5011131;28;20069;-50
2024/04/06 05:42:16;;;;;;;5.68;1.73;;;14.40;99.90;;;;;;5011563;28;20033;-49
2024/04/06 05:44:42;;;;;;;3.65;1.50;;;14.60;99.90;;;;;;5011083;28;20034;-48
2024/04/06 05:47:07;;;;;;;7.00;1.55;;;14.70;99.90;;;;;;5010966;28;20355;-49
2024/04/06 05:49:33;;;;;;;4.18;1.50;;;14.70;99.90;;;;;;5010972;28;20063;-48
2024/04/06 05:52:00;;;;;;;3.67;1.50;;;14.80;99.90;;;;;;5009434;28;20060;-49
2024/04/06 05:54:25;;;;;;;2.67;1.35;;;15.00;99.90;;;;;;5011037;28;20034;-50
2024/04/06 05:56:51;;;;;;;3.78;1.50;;;15.20;99.90;;;;;;5011130;28;20030;-49
2024/04/06 05:59:16;;;;;;;3.88;1.45;;;15.30;99.90;;;;;;5010866;28;20018;-50
2024/04/06 06:01:42;;;;;;;3.85;1.48;;;15.30;99.90;;;;;;5007385;28;20125;-47
2024/04/06 06:04:07;;;;;;;3.88;1.50;;;15.40;99.90;;;;;;5010767;28;20029;-48
2024/04/06 06:06:33;;;;;;;5.53;2.03;;;15.40;99.90;;;;;;5010353;28;20471;-51
2024/04/06 06:08:59;;;;;;;2.03;1.05;;;15.40;99.90;;;;;;5010914;28;20034;-50
2024/04/06 06:11:24;;;;;;;4.35;1.30;;;15.50;99.90;;;;;;5010542;28;20062;-51
2024/04/06 06:13:50;;;;;;;2.88;1.40;;;15.60;99.90;;;;;;5010827;28;20026;-51
2024/04/06 06:16:16;;;;;;;3.75;1.70;;;15.60;99.90;;;;;;5001999;28;20480;-49
2024/04/06 06:18:41;;;;;;;3.65;1.60;;;15.60;99.90;;;;;;4999249;28;20036;-51
2024/04/06 06:21:07;;;;;;;4.15;1.80;;;15.60;99.90;;;;;;4998694;28;20402;-50
2024/04/06 06:23:33;;;;;;;3.83;1.63;;;15.70;99.90;;;;;;4991265;28;20026;-50
2024/04/06 06:25:58;;;;;;;3.90;1.77;;;15.80;99.90;;;;;;4990953;28;20384;-51
2024/04/06 06:28:24;;;;;;;4.53;1.65;;;15.90;99.90;;;;;;4991260;28;20073;-51
2024/04/06 06:30:50;;;;;;;8.35;1.92;;;16.10;99.90;;;;;;4990902;28;20034;-50
2024/04/06 06:33:19;;;;;;;4.15;1.40;;;16.10;99.90;;;;;;4989977;28;20054;-47
2024/04/06 06:35:51;;;;;;;2.85;1.52;;;16.20;99.90;;;;;;5000329;28;20045;-49
2024/04/06 06:38:17;;;;;;;3.67;2.10;;;16.30;99.90;;;;;;5010649;28;20568;-48
2024/04/06 06:40:42;;;;;;;3.92;1.17;;;16.40;99.90;;;;;;5010295;28;20038;-50
2024/04/06 06:43:08;;;;;;;3.33;1.25;;;16.50;99.90;;;;;;5013284;28;20025;-47
2024/04/06 06:45:34;;;;;;;3.30;1.73;;;16.50;99.90;;;;;;5014069;28;20064;-51
2024/04/06 06:47:59;;;;;;;4.13;1.50;;;16.60;99.90;;;;;;5014073;28;20390;-51
2024/04/06 06:50:25;;;;;;;5.63;1.67;;;16.60;99.90;;;;;;5014059;28;20128;-49
2024/04/06 06:52:50;;;;;;;3.80;1.60;;;16.70;99.90;;;;;;5013105;28;20088;-46
2024/04/06 06:55:16;;;;;;;4.07;1.30;;;16.60;99.90;;;;;;5014124;28;20475;-47
2024/04/06 06:57:41;;;;;;;4.93;1.42;;;16.70;99.90;;;;;;5014100;28;20053;-51
2024/04/06 07:00:08;;;;;;;6.80;1.73;;;16.70;99.90;;;;;;5014003;28;20137;-49
2024/04/06 07:02:33;;;;;;;6.35;1.45;;;16.70;99.90;;;;;;5014138;28;20030;-50
2024/04/06 07:04:59;;;;;;;4.72;1.30;;;16.70;99.90;;;;;;5013948;28;20129;-46
2024/04/06 07:07:24;;;;;;;5.75;1.30;;;16.70;99.90;;;;;;5014011;28;20499;-50
2024/04/06 07:09:50;;;;;;;2.78;1.45;;;16.80;99.90;;;;;;5014031;28;20065;-50
2024/04/06 07:12:15;;;;;;;5.05;1.63;;;16.80;99.90;;;;;;5013867;28;20539;-46
2024/04/06 07:14:41;;;;;;;6.32;3.03;;;17.00;99.90;;;;;;5012992;28;20156;-47
2024/04/06 07:17:07;;;;;;;3.92;1.40;;;17.10;99.90;;;;;;5013583;28;20034;-51
2024/04/06 07:19:32;;;;;;;6.70;2.85;;;17.30;99.90;;;;;;5013537;28;20041;-47
2024/04/06 07:21:58;;;;;;;3.75;1.65;;;17.40;99.90;;;;;;5013875;28;20029;-49
2024/04/06 07:24:24;;;;;;;4.13;1.63;;;17.60;99.90;;;;;;5013780;28;20048;-50
2024/04/06 07:26:49;;;;;;;4.38;1.92;;;17.80;99.90;;;;;;5012158;28;20034;-47
2024/04/06 07:29:15;;;;;;;4.20;1.50;;;18.00;99.90;;;;;;5013860;28;20044;-47
2024/04/06 07:31:40;;;;;;;2.72;1.20;;;18.10;99.90;;;;;;5013606;28;20038;-47
2024/04/06 07:34:06;;;;;;;3.35;1.80;;;18.20;99.90;;;;;;5013498;28;20091;-51
2024/04/06 07:36:32;;;;;;;5.25;2.17;;;18.40;99.90;;;;;;5013108;28;20455;-52
2024/04/06 07:38:57;;;;;;;5.40;1.40;;;18.50;99.90;;;;;;5013643;28;20447;-50
2024/04/06 07:41:23;;;;;;;2.47;1.40;;;18.60;99.90;;;;;;5013416;28;20060;-48
2024/04/06 07:43:49;;;;;;;2.97;1.45;;;18.70;99.90;;;;;;5013435;28;20415;-47
2024/04/06 07:46:14;;;;;;;3.33;1.42;;;19.00;99.90;;;;;;5013073;28;20036;-49
2024/04/06 07:48:40;;;;;;;3.05;1.10;;;19.20;99.90;;;;;;5013324;28;20038;-48
2024/04/06 07:51:05;;;;;;;3.08;1.55;;;19.40;99.90;;;;;;5011609;28;20471;-46
2024/04/06 07:53:31;;;;;;;4.85;2.00;;;19.70;99.90;;;;;;5012405;28;20069;-51
2024/04/06 07:55:57;;;;;;;3.53;1.40;;;20.00;99.90;;;;;;5012958;28;20096;-45
2024/04/06 07:58:23;;;;;;;5.45;1.20;;;20.10;99.90;;;;;;5011525;28;20030;-48
2024/04/06 08:00:49;;;;;;;4.65;1.30;;;20.10;99.90;;;;;;5001842;28;20035;-46
2024/04/06 08:03:14;;;;;;;2.45;1.10;;;20.30;99.90;;;;;;4993715;28;20027;-47
2024/04/06 08:05:40;;;;;;;4.20;1.48;;;20.40;99.90;;;;;;4993375;28;20574;-50
2024/04/06 08:08:07;;;;;;;2.92;1.38;;;20.70;99.90;;;;;;4993522;28;20027;-50
2024/04/06 08:10:33;;;;;;;3.17;1.42;;;20.90;99.90;;;;;;4993174;28;20516;-49
2024/04/06 08:12:58;;;;;;;4.30;1.75;;;21.00;99.90;;;;;;4993262;28;20034;-47
2024/04/06 08:15:24;;;;;;;3.28;1.20;;;21.10;99.90;;;;;;4993227;28;20030;-48
2024/04/06 08:17:50;;;;;;;7.60;3.78;;;21.30;99.90;;;;;;4993077;28;20034;-50
2024/04/06 08:20:18;;;;;;;3.35;1.20;;;21.50;99.90;;;;;;4992614;28;20452;-46
2024/04/06 08:22:44;;;;;;;;;;;21.30;99.90;;;;;;4993340;28;20034;-47
2024/04/06 08:25:11;;;;;;;2.90;1.60;;;21.30;99.90;;;;;;4992395;28;19909;-49
2024/04/06 08:27:37;;;;;;;8.50;3.20;;;21.30;99.90;;;;;;4992449;28;20155;-50
2024/04/06 08:30:06;;;;;;;6.55;3.53;;;21.30;99.90;;;;;;4992253;28;20056;-46
2024/04/06 08:32:33;;;;;;;4.97;2.42;;;21.30;99.90;;;;;;4992653;28;20073;-46
2024/04/06 08:34:59;;;;;;;4.05;1.48;;;21.20;99.90;;;;;;4992312;28;20562;-47
2024/04/06 08:37:25;;;;;;;3.13;1.13;;;21.20;99.90;;;;;;4992424;28;20472;-48
2024/04/06 08:39:51;;;;;;;4.40;1.40;;;21.30;99.90;;;;;;4992188;28;20066;-51
2024/04/06 08:42:21;;;;;;;3.42;1.27;;;21.30;99.90;;;;;;4992641;28;20027;-50
2024/04/06 08:44:47;;;;;;;4.88;1.40;;;21.40;99.90;;;;;;4992615;28;20030;-49
2024/04/06 08:47:19;;;;;;;2.42;1.33;;;21.30;99.90;;;;;;4992105;28;20065;-49
2024/04/06 08:49:45;;;;;;;3.58;1.10;;;21.20;99.90;;;;;;4991982;28;20479;-47
2024/04/06 08:52:11;;;;;;;3.35;1.23;;;21.30;99.90;;;;;;4992381;28;20064;-47
2024/04/06 08:54:38;;;;;;;2.50;1.10;;;21.40;99.90;;;;;;4991994;28;20044;-47
2024/04/06 08:57:04;;;;;;;3.30;1.25;;;21.40;99.90;;;;;;4991994;28;20038;-48
2024/04/06 08:59:33;;;;;;;2.70;1.10;;;21.40;99.90;;;;;;4991866;28;20052;-49
2024/04/06 09:02:02;;;;;;;3.90;1.38;;;21.60;99.90;;;;;;4990788;28;20039;-48
2024/04/06 09:04:28;;;;;;;4.38;1.23;;;21.70;99.50;;;;;;4991938;28;20073;-46
2024/04/06 09:06:54;;;;;;;4.28;1.20;;;21.70;99.90;;;;;;4989680;28;20082;-50
2024/04/06 09:09:20;;;;;;;2.38;1.10;;;21.60;99.10;;;;;;4991980;28;20034;-49
2024/04/06 09:11:46;;;;;;;5.70;0.90;;;21.60;99.20;;;;;;4990450;28;20057;-48
2024/04/06 09:14:12;;;;;;;3.47;1.20;;;21.70;98.70;;;;;;4991967;28;20344;-47
2024/04/06 09:16:39;;;;;;;4.68;1.20;;;21.80;99.00;;;;;;4991556;28;20049;-47
2024/04/06 09:19:05;;;;;;;2.95;1.00;;;22.00;98.80;;;;;;4991715;28;20442;-46
2024/04/06 09:21:32;;;;;;;4.97;1.40;;;22.20;97.90;;;;;;4991426;28;20031;-46
2024/04/06 09:23:59;;;;;;;3.95;1.00;;;22.20;97.90;;;;;;4991567;28;20129;-47
2024/04/06 09:26:30;;;;;;;2.42;0.80;;;22.20;97.60;;;;;;4991026;28;20475;-46
2024/04/06 09:28:57;;;;;;;5.40;1.38;;;22.30;97.20;;;;;;4991817;28;20399;-46
2024/04/06 09:31:23;;;;;;;1.98;1.02;;;22.60;96.80;;;;;;4991262;28;20026;-47
2024/04/06 09:34:00;;;;;;;2.88;1.13;;;22.90;96.90;;;;;;4991506;28;20080;-46
2024/04/06 09:36:26;;;;;;;3.22;1.20;;;23.20;96.20;;;;;;4991239;28;20130;-46
2024/04/06 09:38:53;;;;;;;2.55;1.02;;;23.70;95.30;;;;;;4991353;28;20046;-46
2024/04/06 09:41:20;;;;;;;3.15;1.10;;;24.00;95.40;;;;;;4991316;28;20030;-46
2024/04/06 09:43:54;;;;;;;3.50;1.00;;;24.30;93.80;;;;;;4991569;28;20464;-49
2024/04/06 09:46:20;;;;;;;4.57;1.02;;;24.50;93.60;;;;;;4991055;28;20445;-51
2024/04/06 09:48:46;;;;;;;2.88;0.90;;;24.80;92.50;;;;;;4991180;28;20129;-50
2024/04/06 09:51:12;;;;;;;2.63;1.00;;;24.70;92.10;;;;;;4991035;28;20022;-47
2024/04/06 09:53:41;;;;;;;2.38;1.10;;;24.80;92.10;;;;;;4990993;28;20483;-47
2024/04/06 09:56:08;;;;;;;2.75;1.23;;;24.60;92.40;;;;;;4990797;28;20114;-46
2024/04/06 09:58:34;;;;;;;3.47;1.13;;;24.70;91.80;;;;;;4991128;28;20026;-51
2024/04/06 10:01:14;;;;;;;4.15;1.20;;;25.10;92.20;;;;;;4990834;28;20027;-50
2024/04/06 10:03:47;;;;;;;2.00;0.93;;;25.50;90.50;;;;;;4991094;28;20030;-49
2024/04/06 10:06:17;;;;;;;3.28;1.05;;;26.00;89.60;;;;;;4990634;28;20030;-48
2024/04/06 10:08:46;;;;;;;4.05;1.10;;;26.10;87.90;;;;;;4990978;28;20506;-50
2024/04/06 10:11:22;;;;;;;1.73;0.70;;;26.10;87.50;;;;;;4990850;28;20027;-50
2024/04/06 10:13:58;;;;;;;2.50;1.13;;;25.70;87.40;;;;;;4990877;28;20035;-51
2024/04/06 10:16:31;;;;;;;2.28;0.93;;;25.20;88.40;;;;;;4990172;28;20033;-49
2024/04/06 10:18:59;;;;;;;3.00;0.93;;;24.90;88.40;;;;;;4994956;28;20371;-51
2024/04/06 10:21:34;;;;;;;3.90;1.10;;;24.40;88.90;;;;;;4994850;28;20030;-48
2024/04/06 10:24:10;;;;;;;2.30;0.95;;;24.00;89.60;;;;;;4995040;28;20038;-46
2024/04/06 10:26:46;;;;;;;3.03;1.45;;;23.70;90.20;;;;;;4995001;28;20029;-47
2024/04/06 10:29:15;;;;;;;5.50;2.35;;;23.70;90.40;;;;;;4995082;28;20034;-51
2024/04/06 10:31:41;;;;;;;2.40;1.17;;;24.30;90.90;;;;;;4994895;28;20030;-50
2024/04/06 10:34:07;;;;;;;3.47;1.00;;;25.10;88.70;;;;;;4995004;28;20391;-52
2024/04/06 10:36:33;;;;;;;7.05;3.38;;;26.00;85.90;;;;;;4994609;28;20037;-46
2024/04/06 10:38:58;;;;;;;3.60;1.10;;;26.70;83.30;;;;;;4995477;28;20332;-48
2024/04/06 10:41:24;;;;;;;3.40;1.70;;;26.90;79.30;;;;;;4994620;28;20033;-48
2024/04/06 10:43:50;;;;;;;3.47;1.77;;;27.00;78.90;;;;;;4994946;28;20030;-49
2024/04/06 10:46:16;;;;;;;5.05;1.60;;;27.30;78.30;;;;;;4994119;28;20487;-50
2024/04/06 10:48:43;;;;;;;1.70;0.73;;;27.80;75.60;;;;;;4994482;28;20027;-47
2024/04/06 10:51:09;;;;;;;1.85;0.90;;;28.40;74.90;;;;;;4994294;28;20030;-49
2024/04/06 10:53:35;;;;;;;4.40;1.00;;;28.90;72.10;;;;;;4994593;28;20030;-49
2024/04/06 10:56:03;;;;;;;3.65;2.30;;;29.60;70.90;;;;;;4993930;28;20019;-50
2024/04/06 10:58:29;;;;;;;2.85;1.35;;;30.50;70.70;;;;;;4994554;28;20030;-49
2024/04/06 11:00:54;;;;;;;3.78;1.30;;;30.50;66.80;;;;;;4993832;28;20027;-51
2024/04/06 11:03:21;;;;;;;3.67;1.17;;;30.40;65.10;;;;;;4994459;28;20064;-47
2024/04/06 11:05:47;;;;;;;1.98;0.93;;;30.50;63.80;;;;;;4993979;28;20093;-47
2024/04/06 11:08:13;;;;;;;1.73;1.00;;;30.20;63.60;;;;;;4992668;28;20451;-46
2024/04/06 11:10:39;;;;;;;2.05;1.10;;;30.40;63.20;;;;;;4993673;28;20066;-50
2024/04/06 11:13:05;;;;;;;2.78;1.48;;;30.20;63.00;;;;;;4994082;28;20062;-48
2024/04/06 11:15:31;;;;;;;3.45;1.60;;;30.10;64.50;;;;;;4993806;28;20068;-49
2024/04/06 11:17:57;;;;;;;2.33;1.20;;;29.80;65.00;;;;;;4993731;28;20426;-49
2024/04/06 11:20:24;;;;;;;1.58;0.82;;;29.40;63.40;;;;;;4993514;28;20403;-47
2024/04/06 11:22:50;;;;;;;2.97;1.00;;;29.00;63.50;;;;;;4993803;28;20022;-47
2024/04/06 11:25:17;;;;;;;2.78;0.98;;;28.60;63.20;;;;;;4993609;28;20033;-49
2024/04/06 11:27:49;;;;;;;3.17;1.00;;;28.30;64.20;;;;;;4993497;28;20022;-50
2024/04/06 11:30:16;;;;;;;1.80;1.00;;;28.10;65.20;;;;;;4992519;28;20026;-51
2024/04/06 11:32:51;;;;;;;4.32;1.20;;;27.90;64.10;;;;;;4993453;28;20165;-47
2024/04/06 11:35:20;;;;;;;3.53;1.30;;;27.50;65.20;;;;;;4993370;28;20041;-51
2024/04/06 11:37:46;;;;;;;3.65;1.10;;;27.10;66.30;;;;;;4991960;28;20035;-48
2024/04/06 11:40:12;;;;;;;2.20;0.82;;;27.00;65.90;;;;;;4993328;28;20057;-51
2024/04/06 11:42:38;;;;;;;2.97;1.10;;;27.10;67.30;;;;;;4993780;28;20109;-49
2024/04/06 11:45:04;;;;;;;3.15;1.25;;;27.30;67.00;;;;;;4993334;28;20369;-47
2024/04/06 11:47:30;;;;;;;2.67;0.95;;;27.60;66.90;;;;;;4993295;28;20484;-50
2024/04/06 11:49:55;;;;;;;2.95;1.20;;;27.50;66.30;;;;;;4993178;28;20080;-49
2024/04/06 11:52:21;;;;;;;2.00;0.80;;;27.30;67.00;;;;;;4993315;28;20121;-52
2024/04/06 11:54:47;;;;;;;2.60;1.00;;;27.30;67.00;;;;;;4993239;28;20034;-49
2024/04/06 11:57:12;;;;;;;2.35;1.10;;;27.30;66.70;;;;;;4993307;28;20145;-47
2024/04/06 11:59:38;;;;;;;1.90;1.02;;;27.10;67.00;;;;;;4993094;28;20026;-51
2024/04/06 12:02:03;;;;;;;4.25;1.25;;;27.10;67.70;;;;;;4993414;28;20440;-52
2024/04/06 12:04:29;;;;;;;3.50;1.10;;;27.20;67.60;;;;;;4993153;28;20022;-48
2024/04/06 12:06:56;;;;;;;3.38;1.20;;;27.40;66.70;;;;;;4992818;28;20484;-51
2024/04/06 12:09:22;;;;;;;2.95;1.20;;;27.50;67.20;;;;;;4993093;28;20061;-51
2024/04/06 12:11:48;;;;;;;3.03;1.05;;;27.50;67.60;;;;;;4993225;28;20066;-51
2024/04/06 12:14:13;;;;;;;3.03;1.33;;;27.40;66.00;;;;;;4993222;28;20085;-52
2024/04/06 12:16:39;;;;;;;3.35;1.10;;;27.40;66.80;;;;;;4992921;28;20037;-51
2024/04/06 12:19:05;;;;;;;1.98;0.98;;;27.40;66.50;;;;;;4993013;28;20030;-48
2024/04/06 12:21:30;;;;;;;2.63;1.10;;;27.60;66.70;;;;;;4992640;28;20030;-52
2024/04/06 12:23:56;;;;;;;2.25;1.10;;;27.70;65.40;;;;;;4992905;28;20031;-52
2024/04/06 12:26:22;;;;;;;3.70;1.00;;;27.50;63.80;;;;;;4992483;28;20052;-48
2024/04/06 12:28:48;;;;;;;3.05;0.98;;;27.40;63.70;;;;;;4992791;28;20034;-50
2024/04/06 12:31:14;;;;;;;3.95;1.20;;;27.40;63.10;;;;;;4992571;28;20240;-49
2024/04/06 12:33:40;;;;;;;2.47;1.10;;;27.60;62.20;;;;;;4992751;28;20030;-47
2024/04/06 12:36:06;;;;;;;2.78;1.10;;;27.70;62.20;;;;;;4992046;28;20121;-49
2024/04/06 12:38:32;;;;;;;3.35;1.20;;;27.70;61.60;;;;;;4992517;28;20181;-48
2024/04/06 12:40:59;;;;;;;4.03;1.40;;;27.70;62.20;;;;;;4991840;28;20561;-52
2024/04/06 12:43:25;;;;;;;4.78;1.30;;;27.80;62.10;;;;;;4992483;28;20061;-50